createdAt,value
2023-03-02T00:01:25.700Z,2.82
2023-03-02T00:03:55.519Z,2.79
2023-03-02T00:06:22.026Z,2.76
2023-03-02T00:08:48.386Z,2.72
2023-03-02T00:11:15.629Z,2.72
2023-03-02T00:13:43.065Z,2.71
2023-03-02T00:16:09.420Z,2.73
2023-03-02T00:18:35.799Z,2.76
2023-03-02T00:21:02.101Z,2.70
2023-03-02T00:23:28.627Z,2.69
2023-03-02T00:25:54.926Z,2.73
2023-03-02T00:28:21.196Z,2.69
2023-03-02T00:30:47.471Z,2.69
2023-03-02T00:33:13.984Z,2.68
2023-03-02T00:35:41.162Z,2.73
2023-03-02T00:38:07.510Z,2.70
2023-03-02T00:40:34.782Z,2.67
2023-03-02T00:43:01.082Z,2.64
2023-03-02T00:45:27.410Z,2.63
2023-03-02T00:47:53.746Z,2.61
2023-03-02T00:50:20.059Z,2.61
2023-03-02T00:52:46.372Z,2.58
2023-03-02T00:55:12.736Z,2.59
2023-03-02T00:57:39.053Z,2.55
2023-03-02T01:00:05.692Z,2.55
2023-03-02T01:02:32.238Z,2.52
2023-03-02T01:04:58.562Z,2.53
2023-03-02T01:07:28.407Z,2.52
2023-03-02T01:09:55.020Z,2.49
2023-03-02T01:12:21.401Z,2.49
2023-03-02T01:14:48.429Z,2.48
2023-03-02T01:17:15.096Z,2.51
2023-03-02T01:19:42.048Z,2.48
2023-03-02T01:22:08.359Z,2.47
2023-03-02T01:24:35.061Z,2.46
2023-03-02T01:27:01.428Z,2.45
2023-03-02T01:29:27.733Z,2.48
2023-03-02T01:31:54.389Z,2.49
2023-03-02T01:34:20.840Z,2.46
2023-03-02T01:36:47.134Z,2.52
2023-03-02T01:39:16.419Z,2.53
2023-03-02T01:41:44.002Z,2.49
2023-03-02T01:44:28.914Z,2.48
2023-03-02T01:46:55.277Z,2.52
2023-03-02T01:49:21.612Z,2.51
2023-03-02T01:51:48.252Z,2.49
2023-03-02T01:54:22.722Z,2.51
2023-03-02T01:56:50.997Z,2.51
2023-03-02T01:59:19.421Z,2.44
2023-03-02T02:01:48.072Z,2.39
2023-03-02T02:04:14.645Z,2.44
2023-03-02T02:06:44.295Z,2.44
2023-03-02T02:09:12.999Z,2.43
2023-03-02T02:11:39.426Z,2.46
2023-03-02T02:14:06.571Z,2.47
2023-03-02T02:16:34.251Z,2.45
2023-03-02T02:19:01.295Z,2.44
2023-03-02T02:21:28.580Z,2.41
2023-03-02T02:24:14.910Z,2.41
2023-03-02T02:26:46.846Z,2.42
2023-03-02T02:29:22.909Z,2.38
2023-03-02T02:31:53.461Z,2.40
2023-03-02T02:34:22.678Z,2.33
2023-03-02T02:36:51.679Z,2.33
2023-03-02T02:39:20.573Z,2.24
2023-03-02T02:41:48.157Z,2.27
2023-03-02T02:44:16.117Z,2.26
2023-03-02T02:46:42.521Z,2.22
2023-03-02T02:49:17.893Z,2.15
2023-03-02T02:51:44.214Z,2.17
2023-03-02T02:54:14.289Z,2.12
2023-03-02T02:56:41.797Z,2.13
2023-03-02T02:59:17.421Z,2.15
2023-03-02T03:01:44.927Z,2.11
2023-03-02T03:04:13.582Z,2.14
2023-03-02T03:06:49.386Z,2.10
2023-03-02T03:09:15.790Z,2.10
2023-03-02T03:11:43.635Z,2.07
2023-03-02T03:14:21.407Z,2.04
2023-03-02T03:16:49.208Z,2.02
2023-03-02T03:19:26.601Z,2.04
2023-03-02T03:21:54.196Z,2.04
2023-03-02T03:24:21.107Z,2.01
2023-03-02T03:26:47.571Z,1.96
2023-03-02T03:29:14.569Z,1.98
2023-03-02T03:31:40.939Z,1.96
2023-03-02T03:34:07.704Z,1.96
2023-03-02T03:36:34.422Z,1.92
2023-03-02T03:39:01.131Z,1.91
2023-03-02T03:41:27.554Z,1.88
2023-03-02T03:43:53.922Z,1.88
2023-03-02T03:46:20.404Z,1.90
2023-03-02T03:48:46.816Z,1.91
2023-03-02T03:51:13.166Z,1.86
2023-03-02T03:53:39.471Z,1.87
2023-03-02T03:56:06.055Z,1.82
2023-03-02T03:58:32.513Z,1.76
2023-03-02T04:00:58.965Z,1.75
2023-03-02T04:03:25.939Z,1.75
2023-03-02T04:05:52.719Z,1.80
2023-03-02T04:08:19.624Z,1.73
2023-03-02T04:10:46.475Z,1.65
2023-03-02T04:13:13.010Z,1.61
2023-03-02T04:15:39.797Z,1.64
2023-03-02T04:18:06.278Z,1.56
2023-03-02T04:20:32.640Z,1.55
2023-03-02T04:22:58.964Z,1.48
2023-03-02T04:25:26.458Z,1.55
2023-03-02T04:27:53.242Z,1.51
2023-03-02T04:30:21.028Z,1.53
2023-03-02T04:32:47.541Z,1.53
2023-03-02T04:35:14.586Z,1.52
2023-03-02T04:37:41.879Z,1.46
2023-03-02T04:40:09.681Z,1.43
2023-03-02T04:42:35.979Z,1.37
2023-03-02T04:45:02.311Z,1.39
2023-03-02T04:47:28.734Z,1.38
2023-03-02T04:49:56.596Z,1.36
2023-03-02T04:52:23.093Z,1.35
2023-03-02T04:54:49.480Z,1.31
2023-03-02T04:57:15.783Z,1.29
2023-03-02T04:59:42.205Z,1.26
2023-03-02T05:02:09.041Z,1.22
2023-03-02T05:04:35.443Z,1.26
2023-03-02T05:07:01.772Z,1.28
2023-03-02T05:09:30.363Z,1.30
2023-03-02T05:11:58.309Z,1.27
2023-03-02T05:14:24.979Z,1.23
2023-03-02T05:16:51.459Z,1.22
2023-03-02T05:19:18.213Z,1.18
2023-03-02T05:21:44.824Z,1.16
2023-03-02T05:24:12.060Z,1.17
2023-03-02T05:26:39.197Z,1.14
2023-03-02T05:29:05.509Z,1.10
2023-03-02T05:31:50.493Z,1.09
2023-03-02T05:34:17.423Z,1.07
2023-03-02T05:36:45.100Z,1.05
2023-03-02T05:39:12.134Z,1.06
2023-03-02T05:41:38.935Z,0.96
2023-03-02T05:44:06.025Z,0.94
2023-03-02T05:46:34.164Z,0.92
2023-03-02T05:49:00.780Z,0.92
2023-03-02T05:51:27.434Z,0.90
2023-03-02T05:53:53.823Z,0.92
2023-03-02T05:56:22.325Z,0.88
2023-03-02T05:58:48.657Z,0.89
2023-03-02T06:01:15.639Z,0.91
2023-03-02T06:03:42.455Z,0.89
2023-03-02T06:06:08.701Z,0.88
2023-03-02T06:08:35.112Z,0.91
2023-03-02T06:11:01.398Z,0.91
2023-03-02T06:13:27.808Z,0.89
2023-03-02T06:15:54.312Z,0.88
2023-03-02T06:18:20.699Z,0.85
2023-03-02T06:20:47.009Z,0.83
2023-03-02T06:23:13.949Z,0.78
2023-03-02T06:25:43.602Z,0.84
2023-03-02T06:28:10.031Z,0.80
2023-03-02T06:30:36.438Z,0.80
2023-03-02T06:33:02.766Z,0.83
2023-03-02T06:35:29.243Z,0.84
2023-03-02T06:37:55.937Z,0.84
2023-03-02T06:40:22.217Z,0.84
2023-03-02T06:42:48.618Z,0.88
2023-03-02T06:45:14.976Z,0.88
2023-03-02T06:47:41.364Z,0.91
2023-03-02T06:50:07.974Z,0.89
2023-03-02T06:52:35.081Z,0.89
2023-03-02T06:55:01.452Z,0.91
2023-03-02T06:57:33.641Z,0.90
2023-03-02T07:00:01.376Z,0.90
2023-03-02T07:02:27.940Z,0.86
2023-03-02T07:04:54.414Z,0.82
2023-03-02T07:07:20.715Z,0.81
2023-03-02T07:09:47.006Z,0.90
2023-03-02T07:12:13.361Z,0.92
2023-03-02T07:14:39.909Z,1.03
2023-03-02T07:17:06.283Z,1.06
2023-03-02T07:19:33.041Z,1.07
2023-03-02T07:21:59.382Z,1.08
2023-03-02T07:24:25.840Z,1.04
2023-03-02T07:26:52.328Z,1.08
2023-03-02T07:29:18.869Z,1.11
2023-03-02T07:31:45.399Z,1.11
2023-03-02T07:34:11.886Z,1.12
2023-03-02T07:36:38.230Z,1.15
2023-03-02T07:39:04.570Z,1.13
2023-03-02T07:41:31.445Z,1.18
2023-03-02T07:43:58.295Z,1.18
2023-03-02T07:46:24.646Z,1.20
2023-03-02T07:48:51.290Z,1.21
2023-03-02T07:51:20.429Z,1.22
2023-03-02T07:53:46.790Z,1.23
2023-03-02T07:56:13.253Z,1.28
2023-03-02T07:58:39.561Z,1.33
2023-03-02T08:01:06.042Z,1.35
2023-03-02T08:03:32.433Z,1.37
2023-03-02T08:05:58.864Z,1.43
2023-03-02T08:08:25.409Z,1.47
2023-03-02T08:10:51.698Z,1.48
2023-03-02T08:13:18.064Z,1.47
2023-03-02T08:15:44.465Z,1.49
2023-03-02T08:18:10.964Z,1.48
2023-03-02T08:20:37.480Z,1.51
2023-03-02T08:23:03.866Z,1.52
2023-03-02T08:25:30.216Z,1.55
2023-03-02T08:27:56.488Z,1.64
2023-03-02T08:30:22.939Z,1.69
2023-03-02T08:32:49.349Z,1.68
2023-03-02T08:35:16.197Z,1.74
2023-03-02T08:37:42.475Z,1.73
2023-03-02T08:40:09.090Z,1.78
2023-03-02T08:42:35.654Z,1.81
2023-03-02T08:45:02.109Z,1.83
2023-03-02T08:47:28.561Z,1.87
2023-03-02T08:49:54.945Z,1.89
2023-03-02T08:52:21.233Z,1.91
2023-03-02T08:54:47.572Z,1.92
2023-03-02T08:57:13.991Z,2.00
2023-03-02T08:59:40.409Z,2.03
2023-03-02T09:02:07.133Z,2.05
2023-03-02T09:04:33.818Z,2.12
2023-03-02T09:07:00.306Z,2.15
2023-03-02T09:09:26.579Z,2.18
2023-03-02T09:11:52.867Z,2.24
2023-03-02T09:14:19.183Z,2.29
2023-03-02T09:16:46.163Z,2.33
2023-03-02T09:19:13.804Z,2.36
2023-03-02T09:21:40.097Z,2.43
2023-03-02T09:24:06.498Z,2.50
2023-03-02T09:26:32.819Z,2.53
2023-03-02T09:28:59.236Z,2.57
2023-03-02T09:31:25.640Z,2.60
2023-03-02T09:33:52.120Z,2.65
2023-03-02T09:36:21.564Z,2.72
2023-03-02T09:38:48.088Z,2.74
2023-03-02T09:41:20.445Z,2.82
2023-03-02T09:43:59.940Z,2.81
2023-03-02T09:46:30.549Z,2.88
2023-03-02T09:49:06.786Z,2.93
2023-03-02T09:51:39.704Z,3.06
2023-03-02T09:54:10.669Z,3.17
2023-03-02T09:56:39.497Z,3.28
2023-03-02T09:59:15.717Z,3.39
2023-03-02T10:01:47.140Z,3.51
2023-03-02T10:04:27.516Z,3.62
2023-03-02T10:07:01.414Z,3.74
2023-03-02T10:09:27.727Z,3.84
2023-03-02T10:12:21.112Z,3.99
2023-03-02T10:14:52.784Z,4.14
2023-03-02T10:17:34.131Z,4.28
2023-03-02T10:20:02.692Z,4.38
2023-03-02T10:22:32.593Z,4.48
2023-03-02T10:25:17.677Z,4.60
2023-03-02T10:27:50.104Z,4.82
2023-03-02T10:30:32.079Z,5.01
2023-03-02T10:33:02.056Z,5.21
2023-03-02T10:35:28.866Z,5.32
2023-03-02T10:37:58.299Z,5.50
2023-03-02T10:40:43.388Z,5.61
2023-03-02T10:43:18.015Z,5.73
2023-03-02T10:45:44.671Z,5.92
2023-03-02T10:48:12.555Z,6.06
2023-03-02T10:50:39.187Z,6.20
2023-03-02T10:53:15.448Z,6.29
2023-03-02T10:55:49.268Z,6.49
2023-03-02T10:58:35.796Z,6.67
2023-03-02T11:01:05.641Z,6.86
2023-03-02T11:03:32.481Z,7.05
2023-03-02T11:06:09.942Z,7.24
2023-03-02T11:08:36.419Z,7.39
2023-03-02T11:11:03.830Z,7.50
2023-03-02T11:13:30.693Z,7.65
2023-03-02T11:16:15.496Z,7.76
2023-03-02T11:18:44.543Z,7.95
2023-03-02T11:21:12.720Z,8.09
2023-03-02T11:23:57.502Z,8.27
2023-03-02T11:26:25.334Z,8.54
2023-03-02T11:28:54.601Z,8.64
2023-03-02T11:31:28.338Z,8.76
2023-03-02T11:34:17.944Z,8.91
2023-03-02T11:37:07.888Z,9.03
2023-03-02T11:39:55.382Z,9.16
2023-03-02T11:42:31.903Z,9.30
2023-03-02T11:45:01.917Z,9.49
2023-03-02T11:47:30.334Z,9.59
2023-03-02T11:49:59.186Z,9.82
2023-03-02T11:52:27.524Z,9.99
2023-03-02T11:54:57.793Z,10.16
2023-03-02T11:57:29.577Z,10.27
2023-03-02T11:59:56.718Z,10.33
2023-03-02T12:02:23.101Z,10.40
2023-03-02T12:04:50.195Z,10.52
2023-03-02T12:07:22.999Z,10.57
2023-03-02T12:10:01.527Z,10.68
2023-03-02T12:12:41.604Z,10.89
2023-03-02T12:15:26.601Z,10.87
2023-03-02T12:17:56.103Z,11.05
2023-03-02T12:20:26.562Z,11.18
2023-03-02T12:23:06.815Z,11.32
2023-03-02T12:25:42.192Z,11.34
2023-03-02T12:28:25.934Z,11.36
2023-03-02T12:31:02.848Z,11.47
2023-03-02T12:33:34.860Z,11.42
2023-03-02T12:36:04.286Z,11.52
2023-03-02T12:38:35.152Z,11.55
2023-03-02T12:41:20.452Z,11.57
2023-03-02T12:43:57.843Z,11.65
2023-03-02T12:46:28.549Z,11.79
2023-03-02T12:49:06.380Z,11.82
2023-03-02T12:51:46.029Z,12.00
2023-03-02T12:54:13.881Z,12.06
2023-03-02T12:56:40.378Z,12.16
2023-03-02T12:59:06.691Z,12.20
2023-03-02T13:01:33.803Z,12.32
2023-03-02T13:04:00.370Z,12.38
2023-03-02T13:06:29.811Z,12.50
2023-03-02T13:08:58.321Z,12.57
2023-03-02T13:11:31.066Z,12.52
2023-03-02T13:13:58.149Z,12.55
2023-03-02T13:16:25.954Z,12.59
2023-03-02T13:18:57.697Z,12.53
2023-03-02T13:21:35.120Z,12.51
2023-03-02T13:24:05.889Z,12.51
2023-03-02T13:26:36.255Z,12.51
2023-03-02T13:29:14.707Z,12.56
2023-03-02T13:31:41.274Z,12.61
2023-03-02T13:34:19.702Z,12.71
2023-03-02T13:36:46.059Z,12.75
2023-03-02T13:39:19.645Z,12.75
2023-03-02T13:41:56.260Z,12.75
2023-03-02T13:44:27.262Z,12.79
2023-03-02T13:46:53.861Z,12.85
2023-03-02T13:49:26.454Z,12.89
2023-03-02T13:51:57.287Z,12.89
2023-03-02T13:54:28.253Z,12.90
2023-03-02T13:56:55.570Z,12.85
2023-03-02T13:59:22.367Z,12.97
2023-03-02T14:01:48.733Z,13.06
2023-03-02T14:04:19.211Z,13.08
2023-03-02T14:06:45.918Z,13.14
2023-03-02T14:09:12.579Z,13.27
2023-03-02T14:11:41.170Z,13.24
2023-03-02T14:14:08.654Z,13.24
2023-03-02T14:16:36.035Z,13.24
2023-03-02T14:19:04.845Z,13.25
2023-03-02T14:21:31.955Z,13.17
2023-03-02T14:23:59.067Z,13.10
2023-03-02T14:26:33.702Z,13.12
2023-03-02T14:29:05.727Z,13.14
2023-03-02T14:31:32.776Z,13.15
2023-03-02T14:33:59.243Z,13.04
2023-03-02T14:36:30.737Z,13.06
2023-03-02T14:38:58.078Z,13.00
2023-03-02T14:41:24.835Z,13.01
2023-03-02T14:43:51.333Z,12.89
2023-03-02T14:46:17.656Z,12.90
2023-03-02T14:48:44.000Z,12.80
2023-03-02T14:51:24.180Z,12.81
2023-03-02T14:53:52.300Z,12.82
2023-03-02T14:56:20.258Z,12.66
2023-03-02T14:58:46.639Z,12.67
2023-03-02T15:01:13.001Z,12.60
2023-03-02T15:03:39.403Z,12.55
2023-03-02T15:06:11.791Z,12.37
2023-03-02T15:08:38.373Z,12.33
2023-03-02T15:11:04.736Z,12.29
2023-03-02T15:13:31.006Z,12.20
2023-03-02T15:15:57.322Z,12.10
2023-03-02T15:18:23.680Z,12.04
2023-03-02T15:20:50.201Z,11.92
2023-03-02T15:23:16.460Z,11.85
2023-03-02T15:25:42.928Z,11.79
2023-03-02T15:28:09.444Z,11.73
2023-03-02T15:30:35.860Z,11.63
2023-03-02T15:33:02.151Z,11.50
2023-03-02T15:35:29.503Z,11.37
2023-03-02T15:37:58.171Z,11.24
2023-03-02T15:40:24.714Z,11.08
2023-03-02T15:42:51.304Z,11.04
2023-03-02T15:45:17.612Z,11.01
2023-03-02T15:47:43.926Z,10.95
2023-03-02T15:50:10.783Z,10.92
2023-03-02T15:52:37.204Z,10.88
2023-03-02T15:55:03.658Z,10.79
2023-03-02T15:57:30.159Z,10.65
2023-03-02T15:59:56.464Z,10.63
2023-03-02T16:02:22.794Z,10.55
2023-03-02T16:04:49.155Z,10.43
2023-03-02T16:07:15.524Z,10.35
2023-03-02T16:09:42.282Z,10.17
2023-03-02T16:12:09.080Z,10.15
2023-03-02T16:14:35.444Z,10.04
2023-03-02T16:17:02.212Z,10.01
2023-03-02T16:19:29.580Z,9.88
2023-03-02T16:21:55.888Z,9.85
2023-03-02T16:24:22.292Z,9.81
2023-03-02T16:26:51.416Z,9.78
2023-03-02T16:29:17.730Z,9.71
2023-03-02T16:31:45.607Z,9.63
2023-03-02T16:34:12.167Z,9.54
2023-03-02T16:36:39.447Z,9.48
2023-03-02T16:39:06.257Z,9.38
2023-03-02T16:41:32.828Z,9.36
2023-03-02T16:44:00.216Z,9.32
2023-03-02T16:46:27.991Z,9.26
2023-03-02T16:48:54.751Z,9.10
2023-03-02T16:51:21.720Z,9.06
2023-03-02T16:53:48.199Z,8.96
2023-03-02T16:56:14.952Z,8.91
2023-03-02T16:58:41.810Z,8.84
2023-03-02T17:01:13.288Z,8.74
2023-03-02T17:03:41.902Z,8.62
2023-03-02T17:06:09.320Z,8.55
2023-03-02T17:08:35.946Z,8.52
2023-03-02T17:11:02.664Z,8.43
2023-03-02T17:13:29.012Z,8.34
2023-03-02T17:15:55.833Z,8.27
2023-03-02T17:18:22.325Z,8.19
2023-03-02T17:20:52.679Z,8.09
2023-03-02T17:23:19.046Z,8.00
2023-03-02T17:25:45.622Z,7.91
2023-03-02T17:28:14.753Z,7.92
2023-03-02T17:30:41.716Z,7.84
2023-03-02T17:33:09.259Z,7.78
2023-03-02T17:35:35.931Z,7.71
2023-03-02T17:38:02.497Z,7.64
2023-03-02T17:40:29.268Z,7.52
2023-03-02T17:42:57.661Z,7.49
2023-03-02T17:45:25.967Z,7.52
2023-03-02T17:47:53.368Z,7.47
2023-03-02T17:50:20.637Z,7.43
2023-03-02T17:52:47.053Z,7.30
2023-03-02T17:55:13.790Z,7.24
2023-03-02T17:57:40.523Z,7.13
2023-03-02T18:00:08.481Z,7.06
2023-03-02T18:02:35.021Z,7.07
2023-03-02T18:05:01.508Z,7.09
2023-03-02T18:07:27.871Z,7.00
2023-03-02T18:09:54.216Z,6.97
2023-03-02T18:12:20.606Z,6.88
2023-03-02T18:14:46.935Z,6.85
2023-03-02T18:17:14.990Z,6.75
2023-03-02T18:19:41.313Z,6.69
2023-03-02T18:22:07.638Z,6.61
2023-03-02T18:24:33.967Z,6.57
2023-03-02T18:27:00.233Z,6.42
2023-03-02T18:29:26.719Z,6.36
2023-03-02T18:31:53.332Z,6.25
2023-03-02T18:34:20.141Z,6.20
2023-03-02T18:36:46.934Z,6.06
2023-03-02T18:39:13.517Z,6.06
2023-03-02T18:41:40.129Z,6.02
2023-03-02T18:44:06.515Z,5.97
2023-03-02T18:46:33.416Z,6.01
2023-03-02T18:49:00.880Z,5.91
2023-03-02T18:51:27.810Z,5.86
2023-03-02T18:53:54.660Z,5.83
2023-03-02T18:56:23.798Z,5.78
2023-03-02T18:58:51.418Z,5.79
2023-03-02T19:01:18.051Z,5.73
2023-03-02T19:03:45.922Z,5.73
2023-03-02T19:06:12.381Z,5.70
2023-03-02T19:08:38.791Z,5.69
2023-03-02T19:11:05.856Z,5.60
2023-03-02T19:13:32.251Z,5.60
2023-03-02T19:15:58.608Z,5.57
2023-03-02T19:18:25.177Z,5.54
2023-03-02T19:20:52.433Z,5.51
2023-03-02T19:23:18.753Z,5.45
2023-03-02T19:25:45.090Z,5.40
2023-03-02T19:28:11.607Z,5.37
2023-03-02T19:30:37.997Z,5.32
2023-03-02T19:33:07.074Z,5.30
2023-03-02T19:35:33.397Z,5.24
2023-03-02T19:37:59.733Z,5.21
2023-03-02T19:40:28.994Z,5.20
2023-03-02T19:42:55.667Z,5.17
2023-03-02T19:45:29.850Z,5.14
2023-03-02T19:47:57.756Z,5.13
2023-03-02T19:50:24.865Z,5.09
2023-03-02T19:52:52.435Z,5.08
2023-03-02T19:55:18.839Z,5.04
2023-03-02T19:57:50.879Z,5.03
2023-03-02T20:00:19.230Z,5.01
2023-03-02T20:02:47.172Z,4.96
2023-03-02T20:05:13.722Z,4.95
2023-03-02T20:07:41.801Z,4.95
2023-03-02T20:10:10.731Z,4.88
2023-03-02T20:12:37.450Z,4.82
2023-03-02T20:15:05.085Z,4.82
2023-03-02T20:17:31.439Z,4.75
2023-03-02T20:19:58.519Z,4.69
2023-03-02T20:22:25.989Z,4.65
2023-03-02T20:24:52.439Z,4.70
2023-03-02T20:27:18.771Z,4.63
2023-03-02T20:29:45.422Z,4.63
2023-03-02T20:32:15.938Z,4.64
2023-03-02T20:34:50.820Z,4.61
2023-03-02T20:37:19.342Z,4.55
2023-03-02T20:39:48.187Z,4.53
2023-03-02T20:42:14.992Z,4.53
2023-03-02T20:44:41.965Z,4.47
2023-03-02T20:47:11.263Z,4.47
2023-03-02T20:49:37.651Z,4.43
2023-03-02T20:52:04.358Z,4.45
2023-03-02T20:54:32.479Z,4.41
2023-03-02T20:56:58.804Z,4.44
2023-03-02T20:59:25.653Z,4.43
2023-03-02T21:01:52.083Z,4.39
2023-03-02T21:04:18.721Z,4.37
2023-03-02T21:06:46.179Z,4.34
2023-03-02T21:09:12.901Z,4.29
2023-03-02T21:11:39.756Z,4.24
2023-03-02T21:14:06.289Z,4.17
2023-03-02T21:16:35.990Z,4.11
2023-03-02T21:19:03.381Z,4.06
2023-03-02T21:21:40.749Z,4.01
2023-03-02T21:24:08.604Z,4.05
2023-03-02T21:26:36.490Z,4.07
2023-03-02T21:29:03.656Z,4.02
2023-03-02T21:31:30.062Z,3.99
2023-03-02T21:33:58.098Z,3.94
2023-03-02T21:36:26.740Z,3.86
2023-03-02T21:38:53.058Z,3.82
2023-03-02T21:41:19.534Z,3.76
2023-03-02T21:43:45.855Z,3.72
2023-03-02T21:46:12.931Z,3.70
2023-03-02T21:48:39.385Z,3.70
2023-03-02T21:51:07.030Z,3.72
2023-03-02T21:53:33.446Z,3.72
2023-03-02T21:56:01.757Z,3.69
2023-03-02T21:58:28.207Z,3.71
2023-03-02T22:00:54.460Z,3.70
2023-03-02T22:03:20.861Z,3.70
2023-03-02T22:05:47.202Z,3.70
2023-03-02T22:08:15.756Z,3.65
2023-03-02T22:10:43.883Z,3.64
2023-03-02T22:13:13.366Z,3.61
2023-03-02T22:15:39.622Z,3.60
2023-03-02T22:18:16.970Z,3.58
2023-03-02T22:20:44.476Z,3.52
2023-03-02T22:23:15.191Z,3.48
2023-03-02T22:25:43.587Z,3.50
2023-03-02T22:28:20.961Z,3.58
2023-03-02T22:30:48.376Z,3.60
2023-03-02T22:33:17.302Z,3.62
2023-03-02T22:35:43.751Z,3.69
2023-03-02T22:38:19.865Z,3.71
2023-03-02T22:40:46.219Z,3.68
2023-03-02T22:43:24.774Z,3.74
2023-03-02T22:45:51.789Z,3.74
2023-03-02T22:48:20.131Z,3.76
2023-03-02T22:50:47.512Z,3.80
2023-03-02T22:53:23.099Z,3.82
2023-03-02T22:55:49.572Z,3.80
2023-03-02T22:58:25.395Z,3.81
2023-03-02T23:03:40.615Z,3.88
2023-03-02T23:06:17.588Z,3.89
2023-03-02T23:08:44.885Z,3.89
2023-03-02T23:11:16.557Z,3.87
2023-03-02T23:13:42.860Z,3.88
2023-03-02T23:16:18.178Z,3.86
2023-03-02T23:18:45.056Z,3.86
2023-03-02T23:21:19.668Z,3.84
2023-03-02T23:23:46.534Z,3.83
2023-03-02T23:26:12.830Z,3.83
2023-03-02T23:28:39.297Z,3.82
2023-03-02T23:31:05.681Z,3.77
2023-03-02T23:33:31.969Z,3.73
2023-03-02T23:35:58.268Z,3.73
2023-03-02T23:38:25.393Z,3.70
2023-03-02T23:40:51.660Z,3.72
2023-03-02T23:43:17.976Z,3.72
2023-03-02T23:45:44.297Z,3.68
2023-03-02T23:48:10.565Z,3.60
2023-03-02T23:50:37.067Z,3.63
2023-03-02T23:53:03.715Z,3.64
2023-03-02T23:55:30.943Z,3.65
2023-03-02T23:57:57.347Z,3.54
